sensor_id;sensor_type;location;lat;lon;timestamp;P1;durP1;ratioP1;P2;durP2;ratioP2
32874;SDS011;40468;42.128;24.750;2022-12-10T00:01:06;62.53;;;21.10;;
32874;SDS011;40468;42.128;24.750;2022-12-10T00:02:39;67.45;;;23.15;;
32874;SDS011;40468;42.128;24.750;2022-12-10T00:04:11;64.07;;;21.45;;
32874;SDS011;40468;42.128;24.750;2022-12-10T00:05:43;53.63;;;19.90;;
32874;SDS011;40468;42.128;24.750;2022-12-10T00:07:14;60.83;;;19.17;;
32874;SDS011;40468;42.128;24.750;2022-12-10T00:08:46;54.53;;;20.38;;
32874;SDS011;40468;42.128;24.750;2022-12-10T00:10:17;61.22;;;19.52;;
32874;SDS011;40468;42.128;24.750;2022-12-10T00:11:51;51.80;;;17.70;;
32874;SDS011;40468;42.128;24.750;2022-12-10T00:13:23;57.08;;;19.20;;
32874;SDS011;40468;42.128;24.750;2022-12-10T00:14:53;60.97;;;19.48;;
32874;SDS011;40468;42.128;24.750;2022-12-10T00:16:27;58.22;;;20.58;;
32874;SDS011;40468;42.128;24.750;2022-12-10T00:18:00;60.88;;;21.15;;
32874;SDS011;40468;42.128;24.750;2022-12-10T00:19:31;52.55;;;19.10;;
32874;SDS011;40468;42.128;24.750;2022-12-10T00:21:03;55.17;;;19.95;;
32874;SDS011;40468;42.128;24.750;2022-12-10T00:22:35;66.30;;;21.63;;
32874;SDS011;40468;42.128;24.750;2022-12-10T00:24:07;60.85;;;20.15;;
32874;SDS011;40468;42.128;24.750;2022-12-10T00:25:40;58.53;;;19.45;;
32874;SDS011;40468;42.128;24.750;2022-12-10T00:27:13;57.95;;;19.75;;
32874;SDS011;40468;42.128;24.750;2022-12-10T00:28:45;65.32;;;20.95;;
32874;SDS011;40468;42.128;24.750;2022-12-10T00:30:17;55.13;;;20.13;;
32874;SDS011;40468;42.128;24.750;2022-12-10T00:31:48;65.93;;;21.88;;
32874;SDS011;40468;42.128;24.750;2022-12-10T00:33:20;63.97;;;21.17;;
32874;SDS011;40468;42.128;24.750;2022-12-10T00:34:52;60.13;;;20.70;;
32874;SDS011;40468;42.128;24.750;2022-12-10T00:36:24;61.05;;;21.08;;
32874;SDS011;40468;42.128;24.750;2022-12-10T00:38:00;68.70;;;22.27;;
32874;SDS011;40468;42.128;24.750;2022-12-10T00:39:31;61.90;;;21.83;;
32874;SDS011;40468;42.128;24.750;2022-12-10T00:41:03;67.15;;;21.85;;
32874;SDS011;40468;42.128;24.750;2022-12-10T00:42:36;63.05;;;21.38;;
32874;SDS011;40468;42.128;24.750;2022-12-10T00:44:08;71.63;;;21.85;;
32874;SDS011;40468;42.128;24.750;2022-12-10T00:45:40;72.78;;;21.30;;
32874;SDS011;40468;42.128;24.750;2022-12-10T00:47:11;60.88;;;20.02;;
32874;SDS011;40468;42.128;24.750;2022-12-10T00:48:43;64.82;;;22.83;;
32874;SDS011;40468;42.128;24.750;2022-12-10T00:50:16;69.35;;;20.95;;
32874;SDS011;40468;42.128;24.750;2022-12-10T00:51:47;64.65;;;19.92;;
32874;SDS011;40468;42.128;24.750;2022-12-10T00:53:19;65.47;;;21.13;;
32874;SDS011;40468;42.128;24.750;2022-12-10T00:54:50;74.50;;;22.48;;
32874;SDS011;40468;42.128;24.750;2022-12-10T00:56:23;66.18;;;20.30;;
32874;SDS011;40468;42.128;24.750;2022-12-10T00:57:57;71.13;;;21.33;;
32874;SDS011;40468;42.128;24.750;2022-12-10T00:59:29;63.65;;;21.63;;
32874;SDS011;40468;42.128;24.750;2022-12-10T01:01:17;65.95;;;22.02;;
32874;SDS011;40468;42.128;24.750;2022-12-10T01:02:53;67.18;;;20.70;;
32874;SDS011;40468;42.128;24.750;2022-12-10T01:04:25;57.35;;;19.63;;
32874;SDS011;40468;42.128;24.750;2022-12-10T01:05:57;66.43;;;19.67;;
32874;SDS011;40468;42.128;24.750;2022-12-10T01:07:27;59.03;;;21.25;;
32874;SDS011;40468;42.128;24.750;2022-12-10T01:09:00;71.70;;;23.30;;
32874;SDS011;40468;42.128;24.750;2022-12-10T01:10:35;64.28;;;22.05;;
32874;SDS011;40468;42.128;24.750;2022-12-10T01:12:07;72.78;;;22.45;;
32874;SDS011;40468;42.128;24.750;2022-12-10T01:13:42;74.18;;;23.92;;
32874;SDS011;40468;42.128;24.750;2022-12-10T01:15:14;80.68;;;24.00;;
32874;SDS011;40468;42.128;24.750;2022-12-10T01:16:46;78.82;;;24.02;;
32874;SDS011;40468;42.128;24.750;2022-12-10T01:18:18;72.53;;;22.33;;
32874;SDS011;40468;42.128;24.750;2022-12-10T01:19:49;80.13;;;25.95;;
32874;SDS011;40468;42.128;24.750;2022-12-10T01:21:21;70.03;;;22.38;;
32874;SDS011;40468;42.128;24.750;2022-12-10T01:22:54;71.30;;;22.00;;
32874;SDS011;40468;42.128;24.750;2022-12-10T01:24:27;72.32;;;22.10;;
32874;SDS011;40468;42.128;24.750;2022-12-10T01:26:00;72.85;;;23.60;;
32874;SDS011;40468;42.128;24.750;2022-12-10T01:27:31;72.13;;;23.70;;
32874;SDS011;40468;42.128;24.750;2022-12-10T01:29:04;61.53;;;22.23;;
32874;SDS011;40468;42.128;24.750;2022-12-10T01:32:07;63.38;;;20.65;;
32874;SDS011;40468;42.128;24.750;2022-12-10T01:33:39;74.35;;;23.92;;
32874;SDS011;40468;42.128;24.750;2022-12-10T01:35:10;76.15;;;23.90;;
32874;SDS011;40468;42.128;24.750;2022-12-10T01:36:43;78.80;;;24.75;;
32874;SDS011;40468;42.128;24.750;2022-12-10T01:38:16;79.88;;;25.33;;
32874;SDS011;40468;42.128;24.750;2022-12-10T01:39:47;74.93;;;25.40;;
32874;SDS011;40468;42.128;24.750;2022-12-10T01:41:20;79.50;;;24.60;;
32874;SDS011;40468;42.128;24.750;2022-12-10T01:42:51;81.60;;;26.70;;
32874;SDS011;40468;42.128;24.750;2022-12-10T01:46:40;80.07;;;27.40;;
32874;SDS011;40468;42.128;24.750;2022-12-10T01:48:13;93.85;;;29.27;;
32874;SDS011;40468;42.128;24.750;2022-12-10T01:49:45;97.18;;;30.52;;
32874;SDS011;40468;42.128;24.750;2022-12-10T01:51:16;99.07;;;29.58;;
32874;SDS011;40468;42.128;24.750;2022-12-10T01:52:48;94.80;;;30.40;;
32874;SDS011;40468;42.128;24.750;2022-12-10T01:54:21;87.75;;;30.73;;
32874;SDS011;40468;42.128;24.750;2022-12-10T01:55:54;89.78;;;29.15;;
32874;SDS011;40468;42.128;24.750;2022-12-10T01:57:26;105.97;;;30.08;;
32874;SDS011;40468;42.128;24.750;2022-12-10T01:58:59;105.05;;;32.42;;
32874;SDS011;40468;42.128;24.750;2022-12-10T02:00:34;101.82;;;32.00;;
32874;SDS011;40468;42.128;24.750;2022-12-10T02:02:15;105.78;;;31.85;;
32874;SDS011;40468;42.128;24.750;2022-12-10T02:03:56;93.90;;;30.98;;
32874;SDS011;40468;42.128;24.750;2022-12-10T02:05:39;97.25;;;29.92;;
32874;SDS011;40468;42.128;24.750;2022-12-10T02:07:15;98.95;;;32.38;;
32874;SDS011;40468;42.128;24.750;2022-12-10T02:09:01;95.13;;;31.13;;
32874;SDS011;40468;42.128;24.750;2022-12-10T02:10:42;96.53;;;30.30;;
32874;SDS011;40468;42.128;24.750;2022-12-10T02:12:23;97.00;;;31.08;;
32874;SDS011;40468;42.128;24.750;2022-12-10T02:14:01;89.85;;;30.42;;
32874;SDS011;40468;42.128;24.750;2022-12-10T02:15:39;94.20;;;30.88;;
32874;SDS011;40468;42.128;24.750;2022-12-10T02:17:14;92.03;;;30.67;;
32874;SDS011;40468;42.128;24.750;2022-12-10T02:18:51;91.18;;;31.00;;
32874;SDS011;40468;42.128;24.750;2022-12-10T02:20:29;93.72;;;31.35;;
32874;SDS011;40468;42.128;24.750;2022-12-10T02:22:04;91.75;;;29.70;;
32874;SDS011;40468;42.128;24.750;2022-12-10T02:23:37;90.70;;;31.02;;
32874;SDS011;40468;42.128;24.750;2022-12-10T02:25:13;85.15;;;28.15;;
32874;SDS011;40468;42.128;24.750;2022-12-10T02:26:49;93.32;;;27.55;;
32874;SDS011;40468;42.128;24.750;2022-12-10T02:28:30;79.50;;;26.95;;
32874;SDS011;40468;42.128;24.750;2022-12-10T02:30:10;83.63;;;28.80;;
32874;SDS011;40468;42.128;24.750;2022-12-10T02:31:44;82.60;;;27.00;;
32874;SDS011;40468;42.128;24.750;2022-12-10T02:33:19;81.00;;;28.50;;
32874;SDS011;40468;42.128;24.750;2022-12-10T02:34:54;74.60;;;26.70;;
32874;SDS011;40468;42.128;24.750;2022-12-10T02:36:32;74.65;;;25.58;;
32874;SDS011;40468;42.128;24.750;2022-12-10T02:38:07;73.88;;;27.05;;
32874;SDS011;40468;42.128;24.750;2022-12-10T02:39:43;86.55;;;27.48;;
32874;SDS011;40468;42.128;24.750;2022-12-10T02:41:22;84.97;;;26.85;;
32874;SDS011;40468;42.128;24.750;2022-12-10T02:42:57;79.32;;;27.73;;
32874;SDS011;40468;42.128;24.750;2022-12-10T02:44:29;87.95;;;27.40;;
32874;SDS011;40468;42.128;24.750;2022-12-10T02:46:03;80.50;;;26.58;;
32874;SDS011;40468;42.128;24.750;2022-12-10T02:47:37;69.20;;;25.15;;
32874;SDS011;40468;42.128;24.750;2022-12-10T02:49:11;73.90;;;25.73;;
32874;SDS011;40468;42.128;24.750;2022-12-10T02:50:45;68.20;;;25.63;;
32874;SDS011;40468;42.128;24.750;2022-12-10T02:52:17;75.70;;;26.27;;
32874;SDS011;40468;42.128;24.750;2022-12-10T02:53:58;70.38;;;25.00;;
32874;SDS011;40468;42.128;24.750;2022-12-10T02:55:33;68.57;;;23.67;;
32874;SDS011;40468;42.128;24.750;2022-12-10T02:57:25;70.80;;;24.92;;
32874;SDS011;40468;42.128;24.750;2022-12-10T02:59:06;68.82;;;24.67;;
32874;SDS011;40468;42.128;24.750;2022-12-10T03:00:49;65.85;;;24.38;;
32874;SDS011;40468;42.128;24.750;2022-12-10T03:02:29;70.60;;;25.73;;
32874;SDS011;40468;42.128;24.750;2022-12-10T03:04:05;75.10;;;25.30;;
32874;SDS011;40468;42.128;24.750;2022-12-10T03:05:43;64.90;;;23.27;;
32874;SDS011;40468;42.128;24.750;2022-12-10T03:07:21;69.18;;;25.25;;
32874;SDS011;40468;42.128;24.750;2022-12-10T03:08:59;72.38;;;24.58;;
32874;SDS011;40468;42.128;24.750;2022-12-10T03:10:37;66.22;;;25.40;;
32874;SDS011;40468;42.128;24.750;2022-12-10T03:12:17;67.55;;;22.80;;
32874;SDS011;40468;42.128;24.750;2022-12-10T03:13:57;68.50;;;23.73;;
32874;SDS011;40468;42.128;24.750;2022-12-10T03:15:33;71.45;;;22.38;;
32874;SDS011;40468;42.128;24.750;2022-12-10T03:17:06;64.05;;;23.05;;
32874;SDS011;40468;42.128;24.750;2022-12-10T03:18:39;67.05;;;23.90;;
32874;SDS011;40468;42.128;24.750;2022-12-10T03:20:11;64.07;;;23.52;;
32874;SDS011;40468;42.128;24.750;2022-12-10T03:21:45;64.05;;;23.23;;
32874;SDS011;40468;42.128;24.750;2022-12-10T03:23:20;66.03;;;24.00;;
32874;SDS011;40468;42.128;24.750;2022-12-10T03:24:51;59.92;;;22.73;;
32874;SDS011;40468;42.128;24.750;2022-12-10T03:26:24;68.10;;;24.25;;
32874;SDS011;40468;42.128;24.750;2022-12-10T03:27:56;63.53;;;24.05;;
32874;SDS011;40468;42.128;24.750;2022-12-10T03:29:31;62.53;;;23.45;;
32874;SDS011;40468;42.128;24.750;2022-12-10T03:31:05;67.63;;;24.67;;
32874;SDS011;40468;42.128;24.750;2022-12-10T03:32:39;68.97;;;24.30;;
32874;SDS011;40468;42.128;24.750;2022-12-10T03:34:11;63.25;;;24.20;;
32874;SDS011;40468;42.128;24.750;2022-12-10T03:35:44;61.05;;;23.95;;
32874;SDS011;40468;42.128;24.750;2022-12-10T03:37:17;70.80;;;25.08;;
32874;SDS011;40468;42.128;24.750;2022-12-10T03:38:49;73.05;;;24.88;;
32874;SDS011;40468;42.128;24.750;2022-12-10T03:40:22;78.55;;;25.38;;
32874;SDS011;40468;42.128;24.750;2022-12-10T03:41:54;69.63;;;24.52;;
32874;SDS011;40468;42.128;24.750;2022-12-10T03:43:26;65.70;;;24.10;;
32874;SDS011;40468;42.128;24.750;2022-12-10T03:44:57;66.30;;;23.45;;
32874;SDS011;40468;42.128;24.750;2022-12-10T03:46:30;62.60;;;23.90;;
32874;SDS011;40468;42.128;24.750;2022-12-10T03:48:03;73.32;;;25.00;;
32874;SDS011;40468;42.128;24.750;2022-12-10T03:49:35;69.78;;;24.75;;
32874;SDS011;40468;42.128;24.750;2022-12-10T03:51:07;66.82;;;24.23;;
32874;SDS011;40468;42.128;24.750;2022-12-10T03:52:38;69.75;;;23.90;;
32874;SDS011;40468;42.128;24.750;2022-12-10T03:54:10;71.97;;;25.50;;
32874;SDS011;40468;42.128;24.750;2022-12-10T03:55:42;67.07;;;24.67;;
32874;SDS011;40468;42.128;24.750;2022-12-10T03:57:13;73.47;;;24.48;;
32874;SDS011;40468;42.128;24.750;2022-12-10T03:58:45;71.80;;;24.17;;
32874;SDS011;40468;42.128;24.750;2022-12-10T04:00:18;69.97;;;24.73;;
32874;SDS011;40468;42.128;24.750;2022-12-10T04:01:49;71.85;;;24.73;;
32874;SDS011;40468;42.128;24.750;2022-12-10T04:03:20;73.13;;;25.40;;
32874;SDS011;40468;42.128;24.750;2022-12-10T04:04:54;82.18;;;25.60;;
32874;SDS011;40468;42.128;24.750;2022-12-10T04:06:25;75.18;;;25.58;;
32874;SDS011;40468;42.128;24.750;2022-12-10T04:07:56;75.28;;;23.95;;
32874;SDS011;40468;42.128;24.750;2022-12-10T04:09:28;76.63;;;25.13;;
32874;SDS011;40468;42.128;24.750;2022-12-10T04:11:03;72.63;;;23.52;;
32874;SDS011;40468;42.128;24.750;2022-12-10T04:12:36;69.13;;;23.95;;
32874;SDS011;40468;42.128;24.750;2022-12-10T04:14:08;63.63;;;21.15;;
32874;SDS011;40468;42.128;24.750;2022-12-10T04:15:58;61.67;;;20.77;;
32874;SDS011;40468;42.128;24.750;2022-12-10T04:17:48;63.00;;;21.80;;
32874;SDS011;40468;42.128;24.750;2022-12-10T04:19:20;68.82;;;22.05;;
32874;SDS011;40468;42.128;24.750;2022-12-10T04:20:54;66.80;;;23.88;;
32874;SDS011;40468;42.128;24.750;2022-12-10T04:22:43;65.15;;;22.63;;
32874;SDS011;40468;42.128;24.750;2022-12-10T04:24:35;65.95;;;21.10;;
32874;SDS011;40468;42.128;24.750;2022-12-10T04:26:24;65.65;;;20.88;;
32874;SDS011;40468;42.128;24.750;2022-12-10T04:28:25;64.70;;;21.48;;
32874;SDS011;40468;42.128;24.750;2022-12-10T04:29:57;65.72;;;21.63;;
32874;SDS011;40468;42.128;24.750;2022-12-10T04:31:30;63.28;;;21.20;;
32874;SDS011;40468;42.128;24.750;2022-12-10T04:33:01;59.95;;;21.50;;
32874;SDS011;40468;42.128;24.750;2022-12-10T04:34:32;55.35;;;20.85;;
32874;SDS011;40468;42.128;24.750;2022-12-10T04:36:05;67.25;;;21.08;;
32874;SDS011;40468;42.128;24.750;2022-12-10T04:37:37;57.60;;;20.52;;
32874;SDS011;40468;42.128;24.750;2022-12-10T04:39:09;61.63;;;20.80;;
32874;SDS011;40468;42.128;24.750;2022-12-10T04:40:42;72.63;;;21.38;;
32874;SDS011;40468;42.128;24.750;2022-12-10T04:42:13;60.47;;;21.92;;
32874;SDS011;40468;42.128;24.750;2022-12-10T04:43:45;67.40;;;20.77;;
32874;SDS011;40468;42.128;24.750;2022-12-10T04:45:16;61.30;;;21.50;;
32874;SDS011;40468;42.128;24.750;2022-12-10T04:46:48;59.28;;;21.83;;
32874;SDS011;40468;42.128;24.750;2022-12-10T04:48:19;63.35;;;19.50;;
32874;SDS011;40468;42.128;24.750;2022-12-10T04:49:51;66.82;;;20.45;;
32874;SDS011;40468;42.128;24.750;2022-12-10T04:51:23;60.60;;;20.10;;
32874;SDS011;40468;42.128;24.750;2022-12-10T04:52:55;62.47;;;20.45;;
32874;SDS011;40468;42.128;24.750;2022-12-10T04:54:28;62.38;;;21.38;;
32874;SDS011;40468;42.128;24.750;2022-12-10T04:56:00;58.58;;;22.30;;
32874;SDS011;40468;42.128;24.750;2022-12-10T04:57:35;65.85;;;21.05;;
32874;SDS011;40468;42.128;24.750;2022-12-10T04:59:07;56.63;;;19.70;;
32874;SDS011;40468;42.128;24.750;2022-12-10T05:00:39;58.70;;;18.50;;
32874;SDS011;40468;42.128;24.750;2022-12-10T05:02:11;53.83;;;18.92;;
32874;SDS011;40468;42.128;24.750;2022-12-10T05:03:43;56.05;;;19.70;;
32874;SDS011;40468;42.128;24.750;2022-12-10T05:05:14;63.53;;;20.13;;
32874;SDS011;40468;42.128;24.750;2022-12-10T05:06:48;59.72;;;19.38;;
32874;SDS011;40468;42.128;24.750;2022-12-10T05:08:20;55.97;;;18.85;;
32874;SDS011;40468;42.128;24.750;2022-12-10T05:09:52;54.35;;;18.33;;
32874;SDS011;40468;42.128;24.750;2022-12-10T05:11:25;58.83;;;18.27;;
32874;SDS011;40468;42.128;24.750;2022-12-10T05:12:57;57.65;;;18.85;;
32874;SDS011;40468;42.128;24.750;2022-12-10T05:14:30;54.13;;;17.48;;
32874;SDS011;40468;42.128;24.750;2022-12-10T05:16:01;55.17;;;17.80;;
32874;SDS011;40468;42.128;24.750;2022-12-10T05:17:33;51.35;;;17.73;;
32874;SDS011;40468;42.128;24.750;2022-12-10T05:19:05;51.55;;;17.80;;
32874;SDS011;40468;42.128;24.750;2022-12-10T05:20:37;60.40;;;18.40;;
32874;SDS011;40468;42.128;24.750;2022-12-10T05:22:10;59.38;;;18.70;;
32874;SDS011;40468;42.128;24.750;2022-12-10T05:23:59;57.17;;;18.92;;
32874;SDS011;40468;42.128;24.750;2022-12-10T05:25:31;53.03;;;18.35;;
32874;SDS011;40468;42.128;24.750;2022-12-10T05:27:22;60.60;;;19.08;;
32874;SDS011;40468;42.128;24.750;2022-12-10T05:28:55;56.55;;;18.10;;
32874;SDS011;40468;42.128;24.750;2022-12-10T05:30:28;54.25;;;17.27;;
32874;SDS011;40468;42.128;24.750;2022-12-10T05:32:00;55.53;;;19.20;;
32874;SDS011;40468;42.128;24.750;2022-12-10T05:33:34;48.20;;;17.75;;
32874;SDS011;40468;42.128;24.750;2022-12-10T05:35:05;58.40;;;19.30;;
32874;SDS011;40468;42.128;24.750;2022-12-10T05:36:37;57.85;;;19.77;;
32874;SDS011;40468;42.128;24.750;2022-12-10T05:38:10;54.70;;;18.55;;
32874;SDS011;40468;42.128;24.750;2022-12-10T05:39:42;53.55;;;18.10;;
32874;SDS011;40468;42.128;24.750;2022-12-10T05:41:14;52.38;;;17.80;;
32874;SDS011;40468;42.128;24.750;2022-12-10T05:42:47;56.25;;;19.75;;
32874;SDS011;40468;42.128;24.750;2022-12-10T05:44:19;56.83;;;19.48;;
32874;SDS011;40468;42.128;24.750;2022-12-10T05:45:51;69.10;;;20.45;;
32874;SDS011;40468;42.128;24.750;2022-12-10T05:47:22;60.13;;;19.73;;
32874;SDS011;40468;42.128;24.750;2022-12-10T05:48:54;64.85;;;20.45;;
32874;SDS011;40468;42.128;24.750;2022-12-10T05:50:25;58.72;;;19.67;;
32874;SDS011;40468;42.128;24.750;2022-12-10T05:51:57;67.75;;;20.23;;
32874;SDS011;40468;42.128;24.750;2022-12-10T05:53:31;60.78;;;20.70;;
32874;SDS011;40468;42.128;24.750;2022-12-10T05:55:04;70.45;;;21.55;;
32874;SDS011;40468;42.128;24.750;2022-12-10T05:56:36;69.70;;;20.57;;
32874;SDS011;40468;42.128;24.750;2022-12-10T05:58:08;71.53;;;22.10;;
32874;SDS011;40468;42.128;24.750;2022-12-10T05:59:41;61.20;;;20.20;;
32874;SDS011;40468;42.128;24.750;2022-12-10T06:02:45;57.22;;;18.85;;
32874;SDS011;40468;42.128;24.750;2022-12-10T06:04:17;61.30;;;19.27;;
32874;SDS011;40468;42.128;24.750;2022-12-10T06:05:49;63.30;;;19.33;;
32874;SDS011;40468;42.128;24.750;2022-12-10T06:07:21;55.33;;;18.77;;
32874;SDS011;40468;42.128;24.750;2022-12-10T06:08:54;54.55;;;18.85;;
32874;SDS011;40468;42.128;24.750;2022-12-10T06:10:27;57.50;;;18.95;;
32874;SDS011;40468;42.128;24.750;2022-12-10T06:11:59;58.13;;;18.55;;
32874;SDS011;40468;42.128;24.750;2022-12-10T06:13:31;56.00;;;18.05;;
32874;SDS011;40468;42.128;24.750;2022-12-10T06:15:02;59.58;;;18.88;;
32874;SDS011;40468;42.128;24.750;2022-12-10T06:16:38;58.17;;;19.25;;
32874;SDS011;40468;42.128;24.750;2022-12-10T06:18:11;58.63;;;20.27;;
32874;SDS011;40468;42.128;24.750;2022-12-10T06:19:44;50.10;;;18.03;;
32874;SDS011;40468;42.128;24.750;2022-12-10T06:21:16;54.72;;;17.75;;
32874;SDS011;40468;42.128;24.750;2022-12-10T06:22:49;50.50;;;17.52;;
32874;SDS011;40468;42.128;24.750;2022-12-10T06:24:22;48.05;;;16.73;;
32874;SDS011;40468;42.128;24.750;2022-12-10T06:27:26;43.40;;;15.07;;
32874;SDS011;40468;42.128;24.750;2022-12-10T06:29:00;46.28;;;15.30;;
32874;SDS011;40468;42.128;24.750;2022-12-10T06:30:32;41.33;;;14.73;;
32874;SDS011;40468;42.128;24.750;2022-12-10T06:32:05;45.75;;;15.40;;
32874;SDS011;40468;42.128;24.750;2022-12-10T06:33:37;82.03;;;35.78;;
32874;SDS011;40468;42.128;24.750;2022-12-10T06:35:09;89.20;;;39.45;;
32874;SDS011;40468;42.128;24.750;2022-12-10T06:36:42;76.43;;;30.97;;
32874;SDS011;40468;42.128;24.750;2022-12-10T06:38:14;65.82;;;25.20;;
32874;SDS011;40468;42.128;24.750;2022-12-10T06:39:49;68.03;;;23.77;;
32874;SDS011;40468;42.128;24.750;2022-12-10T06:41:21;117.60;;;56.40;;
32874;SDS011;40468;42.128;24.750;2022-12-10T06:42:54;162.60;;;75.28;;
32874;SDS011;40468;42.128;24.750;2022-12-10T06:44:26;103.57;;;45.50;;
32874;SDS011;40468;42.128;24.750;2022-12-10T06:45:58;50.47;;;19.55;;
32874;SDS011;40468;42.128;24.750;2022-12-10T06:47:28;52.03;;;18.05;;
32874;SDS011;40468;42.128;24.750;2022-12-10T06:49:00;56.33;;;19.13;;
32874;SDS011;40468;42.128;24.750;2022-12-10T06:50:33;51.00;;;18.17;;
32874;SDS011;40468;42.128;24.750;2022-12-10T06:52:04;92.88;;;37.53;;
32874;SDS011;40468;42.128;24.750;2022-12-10T06:53:40;219.52;;;90.95;;
32874;SDS011;40468;42.128;24.750;2022-12-10T06:55:22;118.47;;;53.63;;
32874;SDS011;40468;42.128;24.750;2022-12-10T06:56:54;70.43;;;30.55;;
32874;SDS011;40468;42.128;24.750;2022-12-10T06:58:27;52.47;;;21.00;;
32874;SDS011;40468;42.128;24.750;2022-12-10T06:59:59;51.75;;;19.08;;
32874;SDS011;40468;42.128;24.750;2022-12-10T07:01:31;50.67;;;18.50;;
32874;SDS011;40468;42.128;24.750;2022-12-10T07:03:03;54.72;;;18.95;;
32874;SDS011;40468;42.128;24.750;2022-12-10T07:04:35;53.83;;;19.92;;
32874;SDS011;40468;42.128;24.750;2022-12-10T07:06:08;59.05;;;19.45;;
32874;SDS011;40468;42.128;24.750;2022-12-10T07:07:40;58.85;;;20.13;;
32874;SDS011;40468;42.128;24.750;2022-12-10T07:09:12;59.95;;;20.98;;
32874;SDS011;40468;42.128;24.750;2022-12-10T07:10:46;58.42;;;18.70;;
32874;SDS011;40468;42.128;24.750;2022-12-10T07:12:16;58.50;;;18.80;;
32874;SDS011;40468;42.128;24.750;2022-12-10T07:13:48;56.85;;;19.58;;
32874;SDS011;40468;42.128;24.750;2022-12-10T07:15:20;57.22;;;19.35;;
32874;SDS011;40468;42.128;24.750;2022-12-10T07:16:53;55.95;;;18.60;;
32874;SDS011;40468;42.128;24.750;2022-12-10T07:18:25;58.53;;;17.73;;
32874;SDS011;40468;42.128;24.750;2022-12-10T07:19:57;49.28;;;16.67;;
32874;SDS011;40468;42.128;24.750;2022-12-10T07:21:30;58.95;;;20.50;;
32874;SDS011;40468;42.128;24.750;2022-12-10T07:23:03;49.63;;;17.42;;
32874;SDS011;40468;42.128;24.750;2022-12-10T07:24:35;52.40;;;17.13;;
32874;SDS011;40468;42.128;24.750;2022-12-10T07:26:08;49.83;;;16.73;;
32874;SDS011;40468;42.128;24.750;2022-12-10T07:27:40;48.20;;;15.88;;
32874;SDS011;40468;42.128;24.750;2022-12-10T07:29:13;52.08;;;17.35;;
32874;SDS011;40468;42.128;24.750;2022-12-10T07:30:46;53.67;;;18.63;;
32874;SDS011;40468;42.128;24.750;2022-12-10T07:32:17;47.95;;;18.00;;
32874;SDS011;40468;42.128;24.750;2022-12-10T07:33:50;54.83;;;17.10;;
32874;SDS011;40468;42.128;24.750;2022-12-10T07:35:22;48.45;;;17.52;;
32874;SDS011;40468;42.128;24.750;2022-12-10T07:36:54;56.85;;;19.60;;
32874;SDS011;40468;42.128;24.750;2022-12-10T07:38:26;53.13;;;16.83;;
32874;SDS011;40468;42.128;24.750;2022-12-10T07:39:58;45.75;;;17.10;;
32874;SDS011;40468;42.128;24.750;2022-12-10T07:41:31;51.00;;;16.92;;
32874;SDS011;40468;42.128;24.750;2022-12-10T07:44:35;43.78;;;16.83;;
32874;SDS011;40468;42.128;24.750;2022-12-10T07:46:08;49.60;;;16.90;;
32874;SDS011;40468;42.128;24.750;2022-12-10T07:47:41;52.05;;;17.40;;
32874;SDS011;40468;42.128;24.750;2022-12-10T07:49:13;50.70;;;17.15;;
32874;SDS011;40468;42.128;24.750;2022-12-10T07:50:46;50.00;;;18.85;;
32874;SDS011;40468;42.128;24.750;2022-12-10T07:52:18;47.72;;;17.83;;
32874;SDS011;40468;42.128;24.750;2022-12-10T07:53:50;53.30;;;18.85;;
32874;SDS011;40468;42.128;24.750;2022-12-10T07:55:23;56.63;;;19.73;;
32874;SDS011;40468;42.128;24.750;2022-12-10T07:56:56;55.50;;;19.45;;
32874;SDS011;40468;42.128;24.750;2022-12-10T07:58:28;58.40;;;18.30;;
32874;SDS011;40468;42.128;24.750;2022-12-10T07:59:58;54.15;;;19.95;;
32874;SDS011;40468;42.128;24.750;2022-12-10T08:01:30;56.03;;;18.60;;
32874;SDS011;40468;42.128;24.750;2022-12-10T08:03:02;50.15;;;18.38;;
32874;SDS011;40468;42.128;24.750;2022-12-10T08:04:34;51.00;;;18.83;;
32874;SDS011;40468;42.128;24.750;2022-12-10T08:06:08;59.08;;;18.58;;
32874;SDS011;40468;42.128;24.750;2022-12-10T08:07:41;52.97;;;18.77;;
32874;SDS011;40468;42.128;24.750;2022-12-10T08:09:13;46.03;;;18.92;;
32874;SDS011;40468;42.128;24.750;2022-12-10T08:10:45;52.92;;;19.27;;
32874;SDS011;40468;42.128;24.750;2022-12-10T08:12:18;55.65;;;20.25;;
32874;SDS011;40468;42.128;24.750;2022-12-10T08:13:50;63.30;;;19.98;;
32874;SDS011;40468;42.128;24.750;2022-12-10T08:15:22;52.60;;;19.63;;
32874;SDS011;40468;42.128;24.750;2022-12-10T08:16:54;52.47;;;19.83;;
32874;SDS011;40468;42.128;24.750;2022-12-10T08:18:25;54.67;;;20.45;;
32874;SDS011;40468;42.128;24.750;2022-12-10T08:19:57;53.05;;;20.48;;
32874;SDS011;40468;42.128;24.750;2022-12-10T08:21:30;60.60;;;21.40;;
32874;SDS011;40468;42.128;24.750;2022-12-10T08:23:03;56.60;;;20.98;;
32874;SDS011;40468;42.128;24.750;2022-12-10T08:24:35;56.53;;;20.75;;
32874;SDS011;40468;42.128;24.750;2022-12-10T08:26:07;56.50;;;20.10;;
32874;SDS011;40468;42.128;24.750;2022-12-10T08:27:42;53.50;;;20.90;;
32874;SDS011;40468;42.128;24.750;2022-12-10T08:29:14;52.53;;;20.65;;
32874;SDS011;40468;42.128;24.750;2022-12-10T08:30:46;54.10;;;19.20;;
32874;SDS011;40468;42.128;24.750;2022-12-10T08:32:18;55.13;;;21.20;;
32874;SDS011;40468;42.128;24.750;2022-12-10T08:33:50;61.95;;;21.45;;
32874;SDS011;40468;42.128;24.750;2022-12-10T08:35:22;61.08;;;28.90;;
32874;SDS011;40468;42.128;24.750;2022-12-10T08:36:54;144.32;;;63.78;;
32874;SDS011;40468;42.128;24.750;2022-12-10T08:38:26;68.05;;;26.48;;
32874;SDS011;40468;42.128;24.750;2022-12-10T08:39:58;110.80;;;48.38;;
32874;SDS011;40468;42.128;24.750;2022-12-10T08:41:30;63.67;;;24.83;;
32874;SDS011;40468;42.128;24.750;2022-12-10T08:43:03;61.10;;;21.80;;
32874;SDS011;40468;42.128;24.750;2022-12-10T08:44:35;53.17;;;20.83;;
32874;SDS011;40468;42.128;24.750;2022-12-10T08:46:07;55.88;;;20.25;;
32874;SDS011;40468;42.128;24.750;2022-12-10T08:47:39;54.65;;;21.30;;
32874;SDS011;40468;42.128;24.750;2022-12-10T08:49:11;62.35;;;24.63;;
32874;SDS011;40468;42.128;24.750;2022-12-10T08:50:43;74.20;;;29.95;;
32874;SDS011;40468;42.128;24.750;2022-12-10T08:52:16;127.80;;;55.25;;
32874;SDS011;40468;42.128;24.750;2022-12-10T08:53:48;134.05;;;56.83;;
32874;SDS011;40468;42.128;24.750;2022-12-10T08:55:20;131.05;;;60.15;;
32874;SDS011;40468;42.128;24.750;2022-12-10T08:56:52;65.43;;;26.85;;
32874;SDS011;40468;42.128;24.750;2022-12-10T08:58:26;56.72;;;21.17;;
32874;SDS011;40468;42.128;24.750;2022-12-10T08:59:58;54.65;;;20.88;;
32874;SDS011;40468;42.128;24.750;2022-12-10T09:01:30;51.03;;;21.67;;
32874;SDS011;40468;42.128;24.750;2022-12-10T09:03:02;49.83;;;19.08;;
32874;SDS011;40468;42.128;24.750;2022-12-10T09:04:34;47.53;;;19.35;;
32874;SDS011;40468;42.128;24.750;2022-12-10T09:06:09;45.65;;;19.15;;
32874;SDS011;40468;42.128;24.750;2022-12-10T09:07:43;40.58;;;17.02;;